sensor_id;sensor_type;location;lat;lon;timestamp;P1;durP1;ratioP1;P2;durP2;ratioP2
54037;SDS011;39954;48.844;9.726;2022-07-29T00:00:30;19.55;;;11.68;;
54037;SDS011;39954;48.844;9.726;2022-07-29T00:01:32;22.60;;;12.15;;
54037;SDS011;39954;48.844;9.726;2022-07-29T00:02:37;17.70;;;12.02;;
54037;SDS011;39954;48.844;9.726;2022-07-29T00:03:39;21.73;;;12.55;;
54037;SDS011;39954;48.844;9.726;2022-07-29T00:04:44;23.20;;;12.02;;
54037;SDS011;39954;48.844;9.726;2022-07-29T00:05:48;24.20;;;12.38;;
54037;SDS011;39954;48.844;9.726;2022-07-29T00:06:50;20.27;;;12.35;;
54037;SDS011;39954;48.844;9.726;2022-07-29T00:07:55;12.55;;;8.18;;
54037;SDS011;39954;48.844;9.726;2022-07-29T00:08:57;21.55;;;10.65;;
54037;SDS011;39954;48.844;9.726;2022-07-29T00:10:03;23.77;;;9.52;;
54037;SDS011;39954;48.844;9.726;2022-07-29T00:11:06;14.35;;;9.48;;
54037;SDS011;39954;48.844;9.726;2022-07-29T00:12:10;24.77;;;9.40;;
54037;SDS011;39954;48.844;9.726;2022-07-29T00:13:14;12.63;;;9.07;;
54037;SDS011;39954;48.844;9.726;2022-07-29T00:14:35;15.63;;;7.90;;
54037;SDS011;39954;48.844;9.726;2022-07-29T00:15:39;15.57;;;9.07;;
54037;SDS011;39954;48.844;9.726;2022-07-29T00:16:41;16.30;;;9.40;;
54037;SDS011;39954;48.844;9.726;2022-07-29T00:17:46;17.50;;;8.65;;
54037;SDS011;39954;48.844;9.726;2022-07-29T00:18:48;16.98;;;9.00;;
54037;SDS011;39954;48.844;9.726;2022-07-29T00:19:53;11.98;;;7.88;;
54037;SDS011;39954;48.844;9.726;2022-07-29T00:20:55;13.20;;;7.75;;
54037;SDS011;39954;48.844;9.726;2022-07-29T00:22:00;16.52;;;8.90;;
54037;SDS011;39954;48.844;9.726;2022-07-29T00:23:02;15.45;;;8.77;;
54037;SDS011;39954;48.844;9.726;2022-07-29T00:24:08;12.93;;;7.78;;
54037;SDS011;39954;48.844;9.726;2022-07-29T00:25:11;18.85;;;9.02;;
54037;SDS011;39954;48.844;9.726;2022-07-29T00:26:16;16.05;;;8.38;;
54037;SDS011;39954;48.844;9.726;2022-07-29T00:27:18;24.00;;;9.05;;
54037;SDS011;39954;48.844;9.726;2022-07-29T00:28:23;19.83;;;9.05;;
54037;SDS011;39954;48.844;9.726;2022-07-29T00:29:26;18.65;;;8.98;;
54037;SDS011;39954;48.844;9.726;2022-07-29T00:30:37;23.13;;;9.18;;
54037;SDS011;39954;48.844;9.726;2022-07-29T00:31:39;21.52;;;9.65;;
54037;SDS011;39954;48.844;9.726;2022-07-29T00:32:44;23.30;;;10.43;;
54037;SDS011;39954;48.844;9.726;2022-07-29T00:33:46;20.58;;;9.73;;
54037;SDS011;39954;48.844;9.726;2022-07-29T00:34:51;25.42;;;9.90;;
54037;SDS011;39954;48.844;9.726;2022-07-29T00:36:08;17.98;;;9.85;;
54037;SDS011;39954;48.844;9.726;2022-07-29T00:37:10;18.17;;;9.57;;
54037;SDS011;39954;48.844;9.726;2022-07-29T00:38:13;21.50;;;10.13;;
54037;SDS011;39954;48.844;9.726;2022-07-29T00:39:18;14.82;;;9.95;;
54037;SDS011;39954;48.844;9.726;2022-07-29T00:40:21;21.92;;;9.75;;
54037;SDS011;39954;48.844;9.726;2022-07-29T00:41:26;20.73;;;9.48;;
54037;SDS011;39954;48.844;9.726;2022-07-29T00:42:28;18.90;;;9.48;;
54037;SDS011;39954;48.844;9.726;2022-07-29T00:43:33;16.95;;;9.45;;
54037;SDS011;39954;48.844;9.726;2022-07-29T00:44:37;17.38;;;9.50;;
54037;SDS011;39954;48.844;9.726;2022-07-29T00:45:42;15.60;;;9.00;;
54037;SDS011;39954;48.844;9.726;2022-07-29T00:46:47;15.50;;;10.35;;
54037;SDS011;39954;48.844;9.726;2022-07-29T00:47:50;18.70;;;10.43;;
54037;SDS011;39954;48.844;9.726;2022-07-29T00:48:54;18.23;;;9.82;;
54037;SDS011;39954;48.844;9.726;2022-07-29T00:49:57;13.13;;;10.07;;
54037;SDS011;39954;48.844;9.726;2022-07-29T00:51:05;13.82;;;9.70;;
54037;SDS011;39954;48.844;9.726;2022-07-29T00:52:09;16.42;;;9.88;;
54037;SDS011;39954;48.844;9.726;2022-07-29T00:53:17;22.02;;;10.40;;
54037;SDS011;39954;48.844;9.726;2022-07-29T00:54:24;14.90;;;9.32;;
54037;SDS011;39954;48.844;9.726;2022-07-29T00:55:26;15.63;;;9.48;;
54037;SDS011;39954;48.844;9.726;2022-07-29T00:56:31;12.45;;;9.77;;
54037;SDS011;39954;48.844;9.726;2022-07-29T00:57:34;14.77;;;9.75;;
54037;SDS011;39954;48.844;9.726;2022-07-29T00:58:39;14.73;;;9.27;;
54037;SDS011;39954;48.844;9.726;2022-07-29T00:59:42;13.48;;;8.80;;
54037;SDS011;39954;48.844;9.726;2022-07-29T01:00:49;17.85;;;8.13;;
54037;SDS011;39954;48.844;9.726;2022-07-29T01:01:51;13.93;;;8.57;;
54037;SDS011;39954;48.844;9.726;2022-07-29T01:02:56;13.25;;;8.23;;
54037;SDS011;39954;48.844;9.726;2022-07-29T01:04:02;21.20;;;8.65;;
54037;SDS011;39954;48.844;9.726;2022-07-29T01:05:04;19.38;;;8.35;;
54037;SDS011;39954;48.844;9.726;2022-07-29T01:06:10;18.70;;;7.47;;
54037;SDS011;39954;48.844;9.726;2022-07-29T01:07:12;11.65;;;7.90;;
54037;SDS011;39954;48.844;9.726;2022-07-29T01:08:17;12.18;;;7.60;;
54037;SDS011;39954;48.844;9.726;2022-07-29T01:09:21;15.07;;;7.78;;
54037;SDS011;39954;48.844;9.726;2022-07-29T01:10:46;21.08;;;8.18;;
54037;SDS011;39954;48.844;9.726;2022-07-29T01:11:53;18.60;;;7.72;;
54037;SDS011;39954;48.844;9.726;2022-07-29T01:12:57;17.42;;;7.78;;
54037;SDS011;39954;48.844;9.726;2022-07-29T01:14:08;12.13;;;7.10;;
54037;SDS011;39954;48.844;9.726;2022-07-29T01:15:11;17.60;;;7.50;;
54037;SDS011;39954;48.844;9.726;2022-07-29T01:16:20;9.38;;;7.15;;
54037;SDS011;39954;48.844;9.726;2022-07-29T01:17:32;17.60;;;7.88;;
54037;SDS011;39954;48.844;9.726;2022-07-29T01:18:39;10.93;;;7.50;;
54037;SDS011;39954;48.844;9.726;2022-07-29T01:19:51;19.58;;;7.03;;
54037;SDS011;39954;48.844;9.726;2022-07-29T01:22:35;16.75;;;7.20;;
54037;SDS011;39954;48.844;9.726;2022-07-29T01:23:52;11.18;;;7.22;;
54037;SDS011;39954;48.844;9.726;2022-07-29T01:25:19;10.45;;;7.60;;
54037;SDS011;39954;48.844;9.726;2022-07-29T01:28:03;15.80;;;7.95;;
54037;SDS011;39954;48.844;9.726;2022-07-29T01:29:21;10.82;;;6.47;;
54037;SDS011;39954;48.844;9.726;2022-07-29T01:30:39;21.27;;;7.88;;
54037;SDS011;39954;48.844;9.726;2022-07-29T01:31:45;15.23;;;7.18;;
54037;SDS011;39954;48.844;9.726;2022-07-29T01:33:02;12.32;;;6.40;;
54037;SDS011;39954;48.844;9.726;2022-07-29T01:34:10;14.38;;;7.35;;
54037;SDS011;39954;48.844;9.726;2022-07-29T01:35:20;14.02;;;6.95;;
54037;SDS011;39954;48.844;9.726;2022-07-29T01:36:27;24.33;;;7.30;;
54037;SDS011;39954;48.844;9.726;2022-07-29T01:37:37;16.75;;;7.13;;
54037;SDS011;39954;48.844;9.726;2022-07-29T01:38:46;10.68;;;6.85;;
54037;SDS011;39954;48.844;9.726;2022-07-29T01:39:58;9.38;;;6.30;;
54037;SDS011;39954;48.844;9.726;2022-07-29T01:41:05;15.02;;;6.47;;
54037;SDS011;39954;48.844;9.726;2022-07-29T01:42:14;21.55;;;7.40;;
54037;SDS011;39954;48.844;9.726;2022-07-29T01:43:32;11.70;;;6.63;;
54037;SDS011;39954;48.844;9.726;2022-07-29T01:44:45;11.77;;;6.90;;
54037;SDS011;39954;48.844;9.726;2022-07-29T01:45:56;15.43;;;6.63;;
54037;SDS011;39954;48.844;9.726;2022-07-29T01:47:05;22.02;;;8.02;;
54037;SDS011;39954;48.844;9.726;2022-07-29T01:48:16;17.50;;;7.97;;
54037;SDS011;39954;48.844;9.726;2022-07-29T01:49:24;12.82;;;8.20;;
54037;SDS011;39954;48.844;9.726;2022-07-29T01:50:33;14.38;;;7.07;;
54037;SDS011;39954;48.844;9.726;2022-07-29T01:51:41;20.48;;;8.20;;
54037;SDS011;39954;48.844;9.726;2022-07-29T01:52:49;19.42;;;7.70;;
54037;SDS011;39954;48.844;9.726;2022-07-29T01:54:01;13.93;;;8.07;;
54037;SDS011;39954;48.844;9.726;2022-07-29T01:55:09;10.55;;;7.78;;
54037;SDS011;39954;48.844;9.726;2022-07-29T01:56:18;18.30;;;8.35;;
54037;SDS011;39954;48.844;9.726;2022-07-29T01:57:23;17.63;;;7.68;;
54037;SDS011;39954;48.844;9.726;2022-07-29T01:58:32;14.00;;;7.05;;
54037;SDS011;39954;48.844;9.726;2022-07-29T01:59:36;15.02;;;6.05;;
54037;SDS011;39954;48.844;9.726;2022-07-29T02:00:45;11.13;;;5.13;;
54037;SDS011;39954;48.844;9.726;2022-07-29T02:01:50;7.05;;;4.45;;
54037;SDS011;39954;48.844;9.726;2022-07-29T02:02:58;12.00;;;4.38;;
54037;SDS011;39954;48.844;9.726;2022-07-29T02:04:03;10.25;;;4.80;;
54037;SDS011;39954;48.844;9.726;2022-07-29T02:05:12;10.55;;;4.60;;
54037;SDS011;39954;48.844;9.726;2022-07-29T02:06:17;7.93;;;4.35;;
54037;SDS011;39954;48.844;9.726;2022-07-29T02:07:25;13.00;;;5.38;;
54037;SDS011;39954;48.844;9.726;2022-07-29T02:08:30;11.18;;;4.25;;
54037;SDS011;39954;48.844;9.726;2022-07-29T02:09:37;12.88;;;4.53;;
54037;SDS011;39954;48.844;9.726;2022-07-29T02:10:42;16.05;;;4.65;;
54037;SDS011;39954;48.844;9.726;2022-07-29T02:11:49;16.45;;;5.00;;
54037;SDS011;39954;48.844;9.726;2022-07-29T02:12:54;8.70;;;4.25;;
54037;SDS011;39954;48.844;9.726;2022-07-29T02:14:01;16.38;;;5.50;;
54037;SDS011;39954;48.844;9.726;2022-07-29T02:15:05;7.32;;;4.65;;
54037;SDS011;39954;48.844;9.726;2022-07-29T02:16:14;11.35;;;5.28;;
54037;SDS011;39954;48.844;9.726;2022-07-29T02:17:20;11.30;;;5.35;;
54037;SDS011;39954;48.844;9.726;2022-07-29T02:18:28;11.63;;;5.13;;
54037;SDS011;39954;48.844;9.726;2022-07-29T02:19:32;22.42;;;6.15;;
54037;SDS011;39954;48.844;9.726;2022-07-29T02:20:38;12.20;;;5.03;;
54037;SDS011;39954;48.844;9.726;2022-07-29T02:21:46;15.68;;;6.07;;
54037;SDS011;39954;48.844;9.726;2022-07-29T02:22:49;8.25;;;5.00;;
54037;SDS011;39954;48.844;9.726;2022-07-29T02:23:56;13.10;;;5.40;;
54037;SDS011;39954;48.844;9.726;2022-07-29T02:25:02;14.85;;;5.35;;
54037;SDS011;39954;48.844;9.726;2022-07-29T02:26:14;10.15;;;5.95;;
54037;SDS011;39954;48.844;9.726;2022-07-29T02:27:19;8.10;;;6.70;;
54037;SDS011;39954;48.844;9.726;2022-07-29T02:28:25;16.73;;;7.65;;
54037;SDS011;39954;48.844;9.726;2022-07-29T02:29:30;15.85;;;7.85;;
54037;SDS011;39954;48.844;9.726;2022-07-29T02:30:36;13.20;;;8.10;;
54037;SDS011;39954;48.844;9.726;2022-07-29T02:31:44;17.50;;;7.82;;
54037;SDS011;39954;48.844;9.726;2022-07-29T02:32:52;14.77;;;8.32;;
54037;SDS011;39954;48.844;9.726;2022-07-29T02:33:58;19.77;;;8.93;;
54037;SDS011;39954;48.844;9.726;2022-07-29T02:35:03;21.15;;;9.52;;
54037;SDS011;39954;48.844;9.726;2022-07-29T02:36:10;12.27;;;8.43;;
54037;SDS011;39954;48.844;9.726;2022-07-29T02:37:15;17.00;;;9.23;;
54037;SDS011;39954;48.844;9.726;2022-07-29T02:38:19;17.73;;;9.43;;
54037;SDS011;39954;48.844;9.726;2022-07-29T02:39:37;17.08;;;9.30;;
54037;SDS011;39954;48.844;9.726;2022-07-29T02:40:44;22.55;;;9.35;;
54037;SDS011;39954;48.844;9.726;2022-07-29T02:41:48;22.23;;;9.52;;
54037;SDS011;39954;48.844;9.726;2022-07-29T02:42:55;14.07;;;8.52;;
54037;SDS011;39954;48.844;9.726;2022-07-29T02:43:58;14.05;;;8.32;;
54037;SDS011;39954;48.844;9.726;2022-07-29T02:45:08;16.30;;;9.27;;
54037;SDS011;39954;48.844;9.726;2022-07-29T02:46:13;19.52;;;9.93;;
54037;SDS011;39954;48.844;9.726;2022-07-29T02:47:34;23.88;;;9.63;;
54037;SDS011;39954;48.844;9.726;2022-07-29T02:48:43;21.17;;;9.55;;
54037;SDS011;39954;48.844;9.726;2022-07-29T02:49:52;19.27;;;10.30;;
54037;SDS011;39954;48.844;9.726;2022-07-29T02:51:01;23.98;;;9.63;;
54037;SDS011;39954;48.844;9.726;2022-07-29T02:52:09;25.02;;;9.70;;
54037;SDS011;39954;48.844;9.726;2022-07-29T02:54:26;16.27;;;9.27;;
54037;SDS011;39954;48.844;9.726;2022-07-29T02:55:37;17.98;;;9.30;;
54037;SDS011;39954;48.844;9.726;2022-07-29T02:56:41;13.70;;;8.70;;
54037;SDS011;39954;48.844;9.726;2022-07-29T02:57:49;22.42;;;10.10;;
54037;SDS011;39954;48.844;9.726;2022-07-29T02:59:02;20.10;;;9.30;;
54037;SDS011;39954;48.844;9.726;2022-07-29T03:00:08;21.90;;;10.00;;
54037;SDS011;39954;48.844;9.726;2022-07-29T03:01:15;20.85;;;9.60;;
54037;SDS011;39954;48.844;9.726;2022-07-29T03:02:22;23.23;;;10.15;;
54037;SDS011;39954;48.844;9.726;2022-07-29T03:03:36;17.50;;;10.70;;
54037;SDS011;39954;48.844;9.726;2022-07-29T03:04:39;17.52;;;9.48;;
54037;SDS011;39954;48.844;9.726;2022-07-29T03:05:47;21.98;;;10.43;;
54037;SDS011;39954;48.844;9.726;2022-07-29T03:06:49;19.02;;;9.95;;
54037;SDS011;39954;48.844;9.726;2022-07-29T03:07:57;23.58;;;9.27;;
54037;SDS011;39954;48.844;9.726;2022-07-29T03:09:02;19.33;;;10.27;;
54037;SDS011;39954;48.844;9.726;2022-07-29T03:10:13;28.75;;;10.27;;
54037;SDS011;39954;48.844;9.726;2022-07-29T03:11:18;14.18;;;9.75;;
54037;SDS011;39954;48.844;9.726;2022-07-29T03:12:40;19.10;;;10.45;;
54037;SDS011;39954;48.844;9.726;2022-07-29T03:13:45;21.35;;;10.25;;
54037;SDS011;39954;48.844;9.726;2022-07-29T03:14:48;29.75;;;10.57;;
54037;SDS011;39954;48.844;9.726;2022-07-29T03:15:53;24.35;;;9.50;;
54037;SDS011;39954;48.844;9.726;2022-07-29T03:16:58;33.53;;;10.60;;
54037;SDS011;39954;48.844;9.726;2022-07-29T03:18:04;40.00;;;11.05;;
54037;SDS011;39954;48.844;9.726;2022-07-29T03:19:09;27.38;;;10.05;;
54037;SDS011;39954;48.844;9.726;2022-07-29T03:20:15;32.28;;;9.63;;
54037;SDS011;39954;48.844;9.726;2022-07-29T03:21:17;33.35;;;10.23;;
54037;SDS011;39954;48.844;9.726;2022-07-29T03:22:22;32.58;;;10.75;;
54037;SDS011;39954;48.844;9.726;2022-07-29T03:23:25;23.23;;;9.73;;
54037;SDS011;39954;48.844;9.726;2022-07-29T03:25:39;21.73;;;9.93;;
54037;SDS011;39954;48.844;9.726;2022-07-29T03:26:44;33.92;;;11.02;;
54037;SDS011;39954;48.844;9.726;2022-07-29T03:27:46;30.50;;;11.13;;
54037;SDS011;39954;48.844;9.726;2022-07-29T03:28:51;28.45;;;11.07;;
54037;SDS011;39954;48.844;9.726;2022-07-29T03:29:54;29.38;;;11.30;;
54037;SDS011;39954;48.844;9.726;2022-07-29T03:30:59;34.40;;;11.90;;
54037;SDS011;39954;48.844;9.726;2022-07-29T03:32:02;24.40;;;10.30;;
54037;SDS011;39954;48.844;9.726;2022-07-29T03:33:09;30.85;;;12.05;;
54037;SDS011;39954;48.844;9.726;2022-07-29T03:34:16;31.75;;;10.35;;
54037;SDS011;39954;48.844;9.726;2022-07-29T03:35:23;34.95;;;11.88;;
54037;SDS011;39954;48.844;9.726;2022-07-29T03:36:26;46.15;;;11.48;;
54037;SDS011;39954;48.844;9.726;2022-07-29T03:37:30;27.67;;;10.45;;
54037;SDS011;39954;48.844;9.726;2022-07-29T03:38:34;33.00;;;10.68;;
54037;SDS011;39954;48.844;9.726;2022-07-29T03:39:40;45.33;;;10.60;;
54037;SDS011;39954;48.844;9.726;2022-07-29T03:40:45;37.38;;;10.30;;
54037;SDS011;39954;48.844;9.726;2022-07-29T03:41:55;29.27;;;9.75;;
54037;SDS011;39954;48.844;9.726;2022-07-29T03:42:59;24.40;;;9.63;;
54037;SDS011;39954;48.844;9.726;2022-07-29T03:44:06;21.13;;;8.38;;
54037;SDS011;39954;48.844;9.726;2022-07-29T03:45:10;13.32;;;7.78;;
54037;SDS011;39954;48.844;9.726;2022-07-29T03:46:20;21.67;;;8.48;;
54037;SDS011;39954;48.844;9.726;2022-07-29T03:47:26;22.48;;;7.93;;
54037;SDS011;39954;48.844;9.726;2022-07-29T03:48:52;11.93;;;7.63;;
54037;SDS011;39954;48.844;9.726;2022-07-29T03:50:02;13.63;;;7.45;;
54037;SDS011;39954;48.844;9.726;2022-07-29T03:51:11;19.67;;;8.18;;
54037;SDS011;39954;48.844;9.726;2022-07-29T03:52:13;18.08;;;7.93;;
54037;SDS011;39954;48.844;9.726;2022-07-29T03:53:18;14.02;;;7.82;;
54037;SDS011;39954;48.844;9.726;2022-07-29T03:54:20;15.07;;;8.07;;
54037;SDS011;39954;48.844;9.726;2022-07-29T03:55:26;17.85;;;7.72;;
54037;SDS011;39954;48.844;9.726;2022-07-29T03:56:32;12.32;;;7.75;;
54037;SDS011;39954;48.844;9.726;2022-07-29T03:57:39;10.10;;;7.78;;
54037;SDS011;39954;48.844;9.726;2022-07-29T03:58:41;8.25;;;7.30;;
54037;SDS011;39954;48.844;9.726;2022-07-29T03:59:47;12.43;;;7.85;;
54037;SDS011;39954;48.844;9.726;2022-07-29T04:00:50;13.18;;;7.75;;
54037;SDS011;39954;48.844;9.726;2022-07-29T04:01:55;10.68;;;7.20;;
54037;SDS011;39954;48.844;9.726;2022-07-29T04:02:59;8.52;;;7.50;;
54037;SDS011;39954;48.844;9.726;2022-07-29T04:04:04;10.05;;;6.88;;
54037;SDS011;39954;48.844;9.726;2022-07-29T04:05:13;11.23;;;7.38;;
54037;SDS011;39954;48.844;9.726;2022-07-29T04:06:19;12.20;;;7.25;;
54037;SDS011;39954;48.844;9.726;2022-07-29T04:07:21;11.63;;;7.22;;
54037;SDS011;39954;48.844;9.726;2022-07-29T04:08:25;8.93;;;7.35;;
54037;SDS011;39954;48.844;9.726;2022-07-29T04:09:27;10.43;;;7.22;;
54037;SDS011;39954;48.844;9.726;2022-07-29T04:10:33;11.77;;;7.13;;
54037;SDS011;39954;48.844;9.726;2022-07-29T04:11:36;11.82;;;7.22;;
54037;SDS011;39954;48.844;9.726;2022-07-29T04:13:02;10.25;;;7.30;;
54037;SDS011;39954;48.844;9.726;2022-07-29T04:14:07;12.57;;;7.75;;
54037;SDS011;39954;48.844;9.726;2022-07-29T04:15:09;13.68;;;7.43;;
54037;SDS011;39954;48.844;9.726;2022-07-29T04:16:15;10.63;;;7.45;;
54037;SDS011;39954;48.844;9.726;2022-07-29T04:17:17;12.50;;;7.50;;
54037;SDS011;39954;48.844;9.726;2022-07-29T04:18:22;22.20;;;8.30;;
54037;SDS011;39954;48.844;9.726;2022-07-29T04:19:24;12.75;;;7.80;;
54037;SDS011;39954;48.844;9.726;2022-07-29T04:20:32;13.07;;;7.85;;
54037;SDS011;39954;48.844;9.726;2022-07-29T04:21:36;21.98;;;8.18;;
54037;SDS011;39954;48.844;9.726;2022-07-29T04:22:42;18.42;;;8.38;;
54037;SDS011;39954;48.844;9.726;2022-07-29T04:23:44;15.52;;;8.35;;
54037;SDS011;39954;48.844;9.726;2022-07-29T04:24:54;17.88;;;8.20;;
54037;SDS011;39954;48.844;9.726;2022-07-29T04:26:03;9.70;;;7.30;;
54037;SDS011;39954;48.844;9.726;2022-07-29T04:27:11;9.23;;;7.50;;
54037;SDS011;39954;48.844;9.726;2022-07-29T04:28:13;10.02;;;7.53;;
54037;SDS011;39954;48.844;9.726;2022-07-29T04:29:17;9.93;;;7.68;;
54037;SDS011;39954;48.844;9.726;2022-07-29T04:30:19;10.35;;;7.72;;
54037;SDS011;39954;48.844;9.726;2022-07-29T04:31:24;15.98;;;7.55;;
54037;SDS011;39954;48.844;9.726;2022-07-29T04:32:26;13.00;;;7.68;;
54037;SDS011;39954;48.844;9.726;2022-07-29T04:33:31;12.77;;;6.78;;
54037;SDS011;39954;48.844;9.726;2022-07-29T04:34:34;11.52;;;7.50;;
54037;SDS011;39954;48.844;9.726;2022-07-29T04:35:42;10.98;;;7.15;;
54037;SDS011;39954;48.844;9.726;2022-07-29T04:36:51;15.88;;;7.47;;
54037;SDS011;39954;48.844;9.726;2022-07-29T04:37:55;11.02;;;7.78;;
54037;SDS011;39954;48.844;9.726;2022-07-29T04:38:58;10.63;;;7.85;;
54037;SDS011;39954;48.844;9.726;2022-07-29T04:40:04;13.40;;;7.55;;
54037;SDS011;39954;48.844;9.726;2022-07-29T04:41:08;15.70;;;7.85;;
54037;SDS011;39954;48.844;9.726;2022-07-29T04:42:14;22.02;;;8.88;;
54037;SDS011;39954;48.844;9.726;2022-07-29T04:43:27;25.70;;;9.27;;
54037;SDS011;39954;48.844;9.726;2022-07-29T04:44:37;13.10;;;7.85;;
54037;SDS011;39954;48.844;9.726;2022-07-29T04:45:43;17.65;;;8.55;;
54037;SDS011;39954;48.844;9.726;2022-07-29T04:46:48;17.15;;;8.88;;
54037;SDS011;39954;48.844;9.726;2022-07-29T04:47:50;15.30;;;8.35;;
54037;SDS011;39954;48.844;9.726;2022-07-29T04:48:55;20.70;;;9.25;;
54037;SDS011;39954;48.844;9.726;2022-07-29T04:49:57;15.70;;;7.95;;
54037;SDS011;39954;48.844;9.726;2022-07-29T04:51:05;12.77;;;7.53;;
54037;SDS011;39954;48.844;9.726;2022-07-29T04:52:07;13.93;;;8.20;;
54037;SDS011;39954;48.844;9.726;2022-07-29T04:53:11;22.30;;;9.02;;
54037;SDS011;39954;48.844;9.726;2022-07-29T04:54:13;22.30;;;9.00;;
54037;SDS011;39954;48.844;9.726;2022-07-29T04:55:19;19.90;;;8.93;;
54037;SDS011;39954;48.844;9.726;2022-07-29T04:56:21;13.30;;;8.25;;
54037;SDS011;39954;48.844;9.726;2022-07-29T04:57:26;15.32;;;8.45;;
54037;SDS011;39954;48.844;9.726;2022-07-29T04:58:28;13.20;;;8.40;;
54037;SDS011;39954;48.844;9.726;2022-07-29T04:59:33;15.32;;;8.40;;
54037;SDS011;39954;48.844;9.726;2022-07-29T05:00:35;17.80;;;8.63;;
54037;SDS011;39954;48.844;9.726;2022-07-29T05:01:40;14.00;;;8.55;;
54037;SDS011;39954;48.844;9.726;2022-07-29T05:02:43;14.93;;;8.75;;
54037;SDS011;39954;48.844;9.726;2022-07-29T05:03:48;16.90;;;8.63;;
54037;SDS011;39954;48.844;9.726;2022-07-29T05:04:50;19.58;;;8.43;;
54037;SDS011;39954;48.844;9.726;2022-07-29T05:05:54;15.77;;;8.57;;
54037;SDS011;39954;48.844;9.726;2022-07-29T05:07:02;14.30;;;8.80;;
54037;SDS011;39954;48.844;9.726;2022-07-29T05:08:04;12.15;;;7.95;;
54037;SDS011;39954;48.844;9.726;2022-07-29T05:09:09;16.73;;;8.63;;
54037;SDS011;39954;48.844;9.726;2022-07-29T05:10:11;15.77;;;9.10;;
54037;SDS011;39954;48.844;9.726;2022-07-29T05:11:15;13.43;;;8.38;;
54037;SDS011;39954;48.844;9.726;2022-07-29T05:12:22;18.90;;;9.38;;
54037;SDS011;39954;48.844;9.726;2022-07-29T05:13:27;15.68;;;8.80;;
54037;SDS011;39954;48.844;9.726;2022-07-29T05:14:45;13.32;;;8.50;;
54037;SDS011;39954;48.844;9.726;2022-07-29T05:15:50;13.07;;;8.32;;
54037;SDS011;39954;48.844;9.726;2022-07-29T05:16:52;10.63;;;8.35;;
54037;SDS011;39954;48.844;9.726;2022-07-29T05:17:58;12.20;;;8.18;;
54037;SDS011;39954;48.844;9.726;2022-07-29T05:19:01;13.10;;;8.10;;
54037;SDS011;39954;48.844;9.726;2022-07-29T05:20:11;16.25;;;8.32;;
54037;SDS011;39954;48.844;9.726;2022-07-29T05:21:15;17.65;;;8.43;;
54037;SDS011;39954;48.844;9.726;2022-07-29T05:22:20;17.60;;;8.40;;
54037;SDS011;39954;48.844;9.726;2022-07-29T05:23:25;18.80;;;8.35;;
54037;SDS011;39954;48.844;9.726;2022-07-29T05:24:27;19.55;;;8.02;;
54037;SDS011;39954;48.844;9.726;2022-07-29T05:25:32;12.02;;;7.50;;
54037;SDS011;39954;48.844;9.726;2022-07-29T05:27:46;18.45;;;7.38;;
54037;SDS011;39954;48.844;9.726;2022-07-29T05:28:51;10.38;;;6.95;;
54037;SDS011;39954;48.844;9.726;2022-07-29T05:29:53;20.85;;;7.57;;
54037;SDS011;39954;48.844;9.726;2022-07-29T05:30:58;12.27;;;7.18;;
54037;SDS011;39954;48.844;9.726;2022-07-29T05:32:00;10.63;;;6.82;;
54037;SDS011;39954;48.844;9.726;2022-07-29T05:33:05;12.48;;;6.53;;
54037;SDS011;39954;48.844;9.726;2022-07-29T05:34:07;10.77;;;6.30;;
54037;SDS011;39954;48.844;9.726;2022-07-29T05:35:13;8.63;;;7.03;;
54037;SDS011;39954;48.844;9.726;2022-07-29T05:36:18;11.93;;;6.95;;
54037;SDS011;39954;48.844;9.726;2022-07-29T05:37:23;16.48;;;7.72;;
54037;SDS011;39954;48.844;9.726;2022-07-29T05:38:28;11.68;;;6.68;;
54037;SDS011;39954;48.844;9.726;2022-07-29T05:39:30;19.58;;;7.53;;
54037;SDS011;39954;48.844;9.726;2022-07-29T05:40:51;22.05;;;8.18;;
54037;SDS011;39954;48.844;9.726;2022-07-29T05:41:53;17.05;;;7.90;;
54037;SDS011;39954;48.844;9.726;2022-07-29T05:42:57;26.42;;;8.10;;
54037;SDS011;39954;48.844;9.726;2022-07-29T05:44:02;25.75;;;8.93;;
54037;SDS011;39954;48.844;9.726;2022-07-29T05:45:05;22.92;;;8.35;;
54037;SDS011;39954;48.844;9.726;2022-07-29T05:46:10;29.75;;;9.63;;
54037;SDS011;39954;48.844;9.726;2022-07-29T05:47:12;23.10;;;9.80;;
54037;SDS011;39954;48.844;9.726;2022-07-29T05:48:17;26.05;;;9.65;;
54037;SDS011;39954;48.844;9.726;2022-07-29T05:49:19;21.58;;;8.63;;
54037;SDS011;39954;48.844;9.726;2022-07-29T05:50:27;33.97;;;11.02;;
54037;SDS011;39954;48.844;9.726;2022-07-29T05:51:29;29.33;;;11.82;;
54037;SDS011;39954;48.844;9.726;2022-07-29T05:52:37;34.05;;;13.52;;
54037;SDS011;39954;48.844;9.726;2022-07-29T05:53:42;37.58;;;14.65;;
54037;SDS011;39954;48.844;9.726;2022-07-29T05:54:44;27.70;;;12.10;;
54037;SDS011;39954;48.844;9.726;2022-07-29T05:55:49;34.92;;;13.73;;
54037;SDS011;39954;48.844;9.726;2022-07-29T05:56:52;25.58;;;12.30;;
54037;SDS011;39954;48.844;9.726;2022-07-29T05:57:57;26.25;;;11.60;;
54037;SDS011;39954;48.844;9.726;2022-07-29T05:58:59;18.98;;;10.80;;
54037;SDS011;39954;48.844;9.726;2022-07-29T06:00:18;25.63;;;10.45;;
54037;SDS011;39954;48.844;9.726;2022-07-29T06:01:20;21.27;;;9.05;;
54037;SDS011;39954;48.844;9.726;2022-07-29T06:02:25;18.75;;;8.32;;
54037;SDS011;39954;48.844;9.726;2022-07-29T06:03:27;16.23;;;8.05;;
54037;SDS011;39954;48.844;9.726;2022-07-29T06:04:32;21.25;;;8.10;;
54037;SDS011;39954;48.844;9.726;2022-07-29T06:05:35;22.80;;;7.75;;
54037;SDS011;39954;48.844;9.726;2022-07-29T06:06:39;22.77;;;8.13;;
54037;SDS011;39954;48.844;9.726;2022-07-29T06:07:44;16.52;;;7.43;;
54037;SDS011;39954;48.844;9.726;2022-07-29T06:08:52;15.45;;;6.90;;
54037;SDS011;39954;48.844;9.726;2022-07-29T06:09:56;19.90;;;7.88;;
54037;SDS011;39954;48.844;9.726;2022-07-29T06:11:01;25.35;;;8.20;;
54037;SDS011;39954;48.844;9.726;2022-07-29T06:12:04;15.80;;;6.82;;
54037;SDS011;39954;48.844;9.726;2022-07-29T06:13:09;19.40;;;7.32;;
54037;SDS011;39954;48.844;9.726;2022-07-29T06:14:11;14.43;;;6.78;;
54037;SDS011;39954;48.844;9.726;2022-07-29T06:15:17;16.13;;;6.95;;
54037;SDS011;39954;48.844;9.726;2022-07-29T06:16:19;19.75;;;6.65;;
54037;SDS011;39954;48.844;9.726;2022-07-29T06:17:30;17.83;;;7.28;;
54037;SDS011;39954;48.844;9.726;2022-07-29T06:18:36;25.08;;;7.20;;
54037;SDS011;39954;48.844;9.726;2022-07-29T06:19:38;19.08;;;7.20;;
54037;SDS011;39954;48.844;9.726;2022-07-29T06:20:42;17.23;;;6.82;;
54037;SDS011;39954;48.844;9.726;2022-07-29T06:21:45;26.40;;;9.65;;
54037;SDS011;39954;48.844;9.726;2022-07-29T06:22:53;24.77;;;9.02;;
54037;SDS011;39954;48.844;9.726;2022-07-29T06:23:57;26.98;;;9.48;;
54037;SDS011;39954;48.844;9.726;2022-07-29T06:25:01;30.83;;;10.07;;
54037;SDS011;39954;48.844;9.726;2022-07-29T06:26:06;23.38;;;7.45;;
54037;SDS011;39954;48.844;9.726;2022-07-29T06:27:08;20.27;;;8.20;;
54037;SDS011;39954;48.844;9.726;2022-07-29T06:28:13;17.42;;;7.82;;
54037;SDS011;39954;48.844;9.726;2022-07-29T06:29:15;16.20;;;6.90;;
54037;SDS011;39954;48.844;9.726;2022-07-29T06:30:20;15.07;;;6.10;;
54037;SDS011;39954;48.844;9.726;2022-07-29T06:31:22;10.77;;;5.50;;
54037;SDS011;39954;48.844;9.726;2022-07-29T06:32:27;17.35;;;6.03;;
54037;SDS011;39954;48.844;9.726;2022-07-29T06:33:29;13.13;;;4.93;;
54037;SDS011;39954;48.844;9.726;2022-07-29T06:34:34;10.32;;;4.82;;
54037;SDS011;39954;48.844;9.726;2022-07-29T06:35:37;9.38;;;4.85;;
54037;SDS011;39954;48.844;9.726;2022-07-29T06:36:53;9.88;;;5.00;;
54037;SDS011;39954;48.844;9.726;2022-07-29T06:37:59;9.98;;;4.45;;